Main page
METAR-TAF:

METAR-TAF

Airports :

Dammam, Saudi Arabia

King Fahd International Airport

latitude: 26-28N, longitude: 049-47E, elevation: 22 m

Current weather observation

The report was made 41 minutes ago, at 03:00 UTC
Wind 4 kt from the West/Northwest
Temperature 27°C
Humidity 28%
Pressure 1009 hPa
Visibility: 6000 m

METAR: OEDF 290300Z 29004KT 6000 NSC 27/07 Q1009 NOSIG

Time: 06:41 (03:41 UTC)

Forecast

The report was made 7 hours and 11 minutes ago, at 20:30 UTC
Forecast valid from 29 at 00 UTC to 30 at 06 UTC
Wind 5 kt from variable directions
Visibility: 8000 m
Becoming
from 29 at 07 UTC to 29 at 09 UTC
Wind 14 kt from the East

TAF: OEDF 282030Z 2900/3006 VRB05KT 8000 NSC BECMG 2907/2909 10014KT

Weather observations and forecasts of more than 4000 airports (METAR and TAF reports).

The available stations are represented by yellow and red dots on the map.

Hover mouse over dot to see the name of the station.

Then click to see weather observations and forecasts.

To change the map : click on the green buttons with a black cross to zoom in, on the green button with a dash to zoom out, or on the green arrows for adjacent maps.


METAR-TAF: